In Rescue
 
Open Full Screen Window  High Contrast Mode
Wind Gusting 00 knots
07
November 27, 2020 11:23 PM CST
Weather Information
Wind Direction
  220 °
Wind Speed
  07 kt (8 mph)
Wind Gust
  00 kt (0 mph)
Altimeter
29.98 in
Visibility
10 SM
Temperature
02° C
36° F
Dewpoint
-04° C
25° F
Humidity
65%
1hr Rain Fall
00.00 in.
24hr Rain Fall
00.00 in.
Sky Condition
Clear
VFR

METAR KAQP 280523Z AUTO 22007KT 10SM CLR 02/M04 A2998 RMK AO2

FAA Disclaimer: The data displayed is for advisory purposes only and is not to be used for flight planning or operations.